sensor_id;sensor_type;location;lat;lon;timestamp;pressure;altitude;pressure_sealevel;temperature;humidity
23281;BME280;11809;56.390;-3.266;2022-09-02T00:01:26;101720.28;;;18.05;64.76
23281;BME280;11809;56.390;-3.266;2022-09-02T00:04:02;101721.25;;;18.04;64.77
23281;BME280;11809;56.390;-3.266;2022-09-02T00:06:30;101720.38;;;18.03;64.60
23281;BME280;11809;56.390;-3.266;2022-09-02T00:08:58;101715.06;;;18.03;64.60
23281;BME280;11809;56.390;-3.266;2022-09-02T00:11:29;101712.47;;;18.02;64.64
23281;BME280;11809;56.390;-3.266;2022-09-02T00:13:57;101718.66;;;18.02;64.64
23281;BME280;11809;56.390;-3.266;2022-09-02T00:16:24;101716.09;;;18.01;64.84
23281;BME280;11809;56.390;-3.266;2022-09-02T00:18:51;101709.91;;;18.00;64.71
23281;BME280;11809;56.390;-3.266;2022-09-02T00:21:20;101705.50;;;17.99;64.64
23281;BME280;11809;56.390;-3.266;2022-09-02T00:23:48;101694.97;;;17.98;64.61
23281;BME280;11809;56.390;-3.266;2022-09-02T00:26:15;101700.34;;;17.96;64.61
23281;BME280;11809;56.390;-3.266;2022-09-02T00:28:43;101701.22;;;17.97;64.96
23281;BME280;11809;56.390;-3.266;2022-09-02T00:31:21;101710.16;;;17.96;64.81
23281;BME280;11809;56.390;-3.266;2022-09-02T00:33:49;101701.31;;;17.95;64.80
23281;BME280;11809;56.390;-3.266;2022-09-02T00:36:17;101698.72;;;17.94;64.90
23281;BME280;11809;56.390;-3.266;2022-09-02T00:38:45;101697.00;;;17.93;64.92
23281;BME280;11809;56.390;-3.266;2022-09-02T00:41:13;101698.03;;;17.90;64.98
23281;BME280;11809;56.390;-3.266;2022-09-02T00:43:42;101698.91;;;17.91;64.87
23281;BME280;11809;56.390;-3.266;2022-09-02T00:46:12;101694.41;;;17.91;64.70
23281;BME280;11809;56.390;-3.266;2022-09-02T00:51:36;101700.75;;;17.89;64.87
23281;BME280;11809;56.390;-3.266;2022-09-02T00:54:05;101700.75;;;17.89;64.80
23281;BME280;11809;56.390;-3.266;2022-09-02T00:56:36;101690.13;;;17.89;64.79
23281;BME280;11809;56.390;-3.266;2022-09-02T00:59:04;101681.53;;;17.84;64.91
23281;BME280;11809;56.390;-3.266;2022-09-02T01:01:32;101685.84;;;17.86;64.64
23281;BME280;11809;56.390;-3.266;2022-09-02T01:03:59;101679.66;;;17.86;64.62
23281;BME280;11809;56.390;-3.266;2022-09-02T01:06:27;101681.38;;;17.87;64.80
23281;BME280;11809;56.390;-3.266;2022-09-02T01:09:06;101679.75;;;17.84;64.96
23281;BME280;11809;56.390;-3.266;2022-09-02T01:11:44;101678.97;;;17.82;64.96
23281;BME280;11809;56.390;-3.266;2022-09-02T01:14:14;101679.84;;;17.83;65.02
23281;BME280;11809;56.390;-3.266;2022-09-02T01:16:45;101676.38;;;17.81;64.86
23281;BME280;11809;56.390;-3.266;2022-09-02T01:19:32;101672.03;;;17.80;65.07
23281;BME280;11809;56.390;-3.266;2022-09-02T01:22:00;101664.97;;;17.79;64.88
23281;BME280;11809;56.390;-3.266;2022-09-02T01:24:29;101663.25;;;17.78;65.08
23281;BME280;11809;56.390;-3.266;2022-09-02T01:26:58;101666.78;;;17.78;65.01
23281;BME280;11809;56.390;-3.266;2022-09-02T01:29:27;101658.88;;;17.77;65.01
23281;BME280;11809;56.390;-3.266;2022-09-02T01:31:54;101667.78;;;17.76;64.90
23281;BME280;11809;56.390;-3.266;2022-09-02T01:34:22;101667.78;;;17.76;64.76
23281;BME280;11809;56.390;-3.266;2022-09-02T01:36:49;101667.78;;;17.76;64.71
23281;BME280;11809;56.390;-3.266;2022-09-02T01:39:16;101672.25;;;17.75;64.68
23281;BME280;11809;56.390;-3.266;2022-09-02T01:41:43;101670.56;;;17.74;64.84
23281;BME280;11809;56.390;-3.266;2022-09-02T01:44:10;101662.63;;;17.73;64.64
23281;BME280;11809;56.390;-3.266;2022-09-02T01:46:37;101664.38;;;17.74;64.91
23281;BME280;11809;56.390;-3.266;2022-09-02T01:49:04;101652.00;;;17.73;64.88
23281;BME280;11809;56.390;-3.266;2022-09-02T01:51:31;101651.06;;;17.74;65.01
23281;BME280;11809;56.390;-3.266;2022-09-02T01:53:58;101652.00;;;17.73;65.39
23281;BME280;11809;56.390;-3.266;2022-09-02T01:56:25;101644.13;;;17.71;64.94
23281;BME280;11809;56.390;-3.266;2022-09-02T01:58:52;101651.22;;;17.71;65.03
23281;BME280;11809;56.390;-3.266;2022-09-02T02:01:20;101642.50;;;17.69;65.13
23281;BME280;11809;56.390;-3.266;2022-09-02T02:03:47;101644.38;;;17.67;65.13
23281;BME280;11809;56.390;-3.266;2022-09-02T02:06:16;101640.84;;;17.66;65.20
23281;BME280;11809;56.390;-3.266;2022-09-02T02:08:43;101632.94;;;17.65;65.07
23281;BME280;11809;56.390;-3.266;2022-09-02T02:11:17;101631.25;;;17.64;65.13
23281;BME280;11809;56.390;-3.266;2022-09-02T02:13:44;101629.53;;;17.63;65.06
23281;BME280;11809;56.390;-3.266;2022-09-02T02:16:11;101631.25;;;17.64;64.99
23281;BME280;11809;56.390;-3.266;2022-09-02T02:18:39;101637.59;;;17.61;65.08
23281;BME280;11809;56.390;-3.266;2022-09-02T02:21:06;101626.97;;;17.61;64.98
23281;BME280;11809;56.390;-3.266;2022-09-02T02:23:33;101624.38;;;17.60;64.94
23281;BME280;11809;56.390;-3.266;2022-09-02T02:26:00;101626.16;;;17.59;64.89
23281;BME280;11809;56.390;-3.266;2022-09-02T02:28:27;101620.00;;;17.59;64.87
23281;BME280;11809;56.390;-3.266;2022-09-02T02:30:56;101619.22;;;17.56;64.86
23281;BME280;11809;56.390;-3.266;2022-09-02T02:33:23;101619.22;;;17.56;64.97
23281;BME280;11809;56.390;-3.266;2022-09-02T02:36:03;101616.66;;;17.55;64.83
23281;BME280;11809;56.390;-3.266;2022-09-02T02:38:32;101606.00;;;17.55;65.02
23281;BME280;11809;56.390;-3.266;2022-09-02T02:41:00;101606.00;;;17.55;64.94
23281;BME280;11809;56.390;-3.266;2022-09-02T02:43:35;101603.44;;;17.53;65.08
23281;BME280;11809;56.390;-3.266;2022-09-02T02:46:03;101608.78;;;17.53;65.09
23281;BME280;11809;56.390;-3.266;2022-09-02T02:48:32;101600.81;;;17.52;65.05
23281;BME280;11809;56.390;-3.266;2022-09-02T02:50:59;101599.13;;;17.51;64.90
23281;BME280;11809;56.390;-3.266;2022-09-02T02:53:28;101611.56;;;17.50;64.98
23281;BME280;11809;56.390;-3.266;2022-09-02T02:55:58;101603.56;;;17.50;65.17
23281;BME280;11809;56.390;-3.266;2022-09-02T02:58:25;101601.84;;;17.49;65.24
23281;BME280;11809;56.390;-3.266;2022-09-02T03:00:56;101603.66;;;17.49;64.92
23281;BME280;11809;56.390;-3.266;2022-09-02T03:03:23;101593.09;;;17.47;64.99
23281;BME280;11809;56.390;-3.266;2022-09-02T03:05:50;101587.78;;;17.47;65.18
23281;BME280;11809;56.390;-3.266;2022-09-02T03:08:19;101592.25;;;17.47;64.95
23281;BME280;11809;56.390;-3.266;2022-09-02T03:10:48;101592.25;;;17.47;65.18
23281;BME280;11809;56.390;-3.266;2022-09-02T03:13:21;101592.34;;;17.45;65.27
23281;BME280;11809;56.390;-3.266;2022-09-02T03:15:49;101591.38;;;17.46;65.48
23281;BME280;11809;56.390;-3.266;2022-09-02T03:18:16;101588.72;;;17.46;65.20
23281;BME280;11809;56.390;-3.266;2022-09-02T03:20:43;101587.94;;;17.44;65.13
23281;BME280;11809;56.390;-3.266;2022-09-02T03:23:10;101585.28;;;17.44;65.20
23281;BME280;11809;56.390;-3.266;2022-09-02T03:25:42;101582.63;;;17.44;65.31
23281;BME280;11809;56.390;-3.266;2022-09-02T03:28:10;101575.59;;;17.43;65.25
23281;BME280;11809;56.390;-3.266;2022-09-02T03:30:39;101571.09;;;17.45;65.17
23281;BME280;11809;56.390;-3.266;2022-09-02T03:33:07;101579.13;;;17.44;65.18
23281;BME280;11809;56.390;-3.266;2022-09-02T03:35:39;101557.84;;;17.44;65.22
23281;BME280;11809;56.390;-3.266;2022-09-02T03:38:07;101554.28;;;17.45;65.22
23281;BME280;11809;56.390;-3.266;2022-09-02T03:40:35;101554.16;;;17.46;64.98
23281;BME280;11809;56.390;-3.266;2022-09-02T03:43:02;101550.75;;;17.44;64.92
23281;BME280;11809;56.390;-3.266;2022-09-02T03:45:29;101548.97;;;17.45;64.93
23281;BME280;11809;56.390;-3.266;2022-09-02T03:47:56;101555.19;;;17.44;64.93
23281;BME280;11809;56.390;-3.266;2022-09-02T03:50:36;101549.03;;;17.43;65.15
23281;BME280;11809;56.390;-3.266;2022-09-02T03:53:05;101549.88;;;17.44;65.24
23281;BME280;11809;56.390;-3.266;2022-09-02T03:55:34;101541.91;;;17.44;64.94
23281;BME280;11809;56.390;-3.266;2022-09-02T03:58:01;101547.22;;;17.44;65.23
23281;BME280;11809;56.390;-3.266;2022-09-02T04:00:35;101537.56;;;17.43;65.20
23281;BME280;11809;56.390;-3.266;2022-09-02T04:03:03;101536.69;;;17.42;65.11
23281;BME280;11809;56.390;-3.266;2022-09-02T04:05:30;101533.06;;;17.43;65.12
23281;BME280;11809;56.390;-3.266;2022-09-02T04:07:58;101531.38;;;17.42;65.14
23281;BME280;11809;56.390;-3.266;2022-09-02T04:10:26;101526.06;;;17.42;65.07
23281;BME280;11809;56.390;-3.266;2022-09-02T04:12:53;101524.34;;;17.41;65.06
23281;BME280;11809;56.390;-3.266;2022-09-02T04:15:20;101519.03;;;17.41;65.21
23281;BME280;11809;56.390;-3.266;2022-09-02T04:17:47;101522.53;;;17.42;65.11
23281;BME280;11809;56.390;-3.266;2022-09-02T04:20:14;101512.00;;;17.40;65.24
23281;BME280;11809;56.390;-3.266;2022-09-02T04:22:42;101518.09;;;17.42;65.22
23281;BME280;11809;56.390;-3.266;2022-09-02T04:25:09;101514.56;;;17.42;65.22
23281;BME280;11809;56.390;-3.266;2022-09-02T04:27:37;101516.31;;;17.43;65.08
23281;BME280;11809;56.390;-3.266;2022-09-02T04:30:05;101516.38;;;17.41;65.05
23281;BME280;11809;56.390;-3.266;2022-09-02T04:32:33;101512.78;;;17.42;65.16
23281;BME280;11809;56.390;-3.266;2022-09-02T04:35:05;101509.25;;;17.42;65.32
23281;BME280;11809;56.390;-3.266;2022-09-02T04:37:32;101508.38;;;17.41;65.02
23281;BME280;11809;56.390;-3.266;2022-09-02T04:40:00;101508.38;;;17.41;65.13
23281;BME280;11809;56.390;-3.266;2022-09-02T04:42:27;101507.53;;;17.41;65.13
23281;BME280;11809;56.390;-3.266;2022-09-02T04:44:54;101505.84;;;17.40;65.19
23281;BME280;11809;56.390;-3.266;2022-09-02T04:47:23;101511.16;;;17.40;65.08
23281;BME280;11809;56.390;-3.266;2022-09-02T04:49:50;101505.84;;;17.40;65.11
23281;BME280;11809;56.390;-3.266;2022-09-02T04:52:17;101503.25;;;17.38;65.04
23281;BME280;11809;56.390;-3.266;2022-09-02T04:54:45;101497.00;;;17.39;65.15
23281;BME280;11809;56.390;-3.266;2022-09-02T04:57:12;101496.13;;;17.39;65.18
23281;BME280;11809;56.390;-3.266;2022-09-02T04:59:39;101491.75;;;17.38;65.04
23281;BME280;11809;56.390;-3.266;2022-09-02T05:02:06;101482.84;;;17.39;65.24
23281;BME280;11809;56.390;-3.266;2022-09-02T05:04:33;101487.31;;;17.38;65.12
23281;BME280;11809;56.390;-3.266;2022-09-02T05:07:01;101481.97;;;17.38;65.17
23281;BME280;11809;56.390;-3.266;2022-09-02T05:09:29;101496.91;;;17.41;65.40
23281;BME280;11809;56.390;-3.266;2022-09-02T05:11:57;101491.69;;;17.39;65.14
23281;BME280;11809;56.390;-3.266;2022-09-02T05:14:24;101491.59;;;17.41;65.39
23281;BME280;11809;56.390;-3.266;2022-09-02T05:16:51;101486.28;;;17.41;65.58
23281;BME280;11809;56.390;-3.266;2022-09-02T05:19:21;101491.59;;;17.41;65.59
23281;BME280;11809;56.390;-3.266;2022-09-02T05:21:50;101490.56;;;17.43;65.39
23281;BME280;11809;56.390;-3.266;2022-09-02T05:24:19;101486.09;;;17.44;65.63
23281;BME280;11809;56.390;-3.266;2022-09-02T05:26:51;101485.94;;;17.47;65.71
23281;BME280;11809;56.390;-3.266;2022-09-02T05:29:18;101484.06;;;17.49;65.73
23281;BME280;11809;56.390;-3.266;2022-09-02T05:31:47;101483.88;;;17.52;65.64
23281;BME280;11809;56.390;-3.266;2022-09-02T05:34:15;101482.03;;;17.54;65.69
23281;BME280;11809;56.390;-3.266;2022-09-02T05:36:43;101472.25;;;17.54;65.68
23281;BME280;11809;56.390;-3.266;2022-09-02T05:39:11;101476.63;;;17.55;65.77
23281;BME280;11809;56.390;-3.266;2022-09-02T05:41:38;101467.69;;;17.56;65.66
23281;BME280;11809;56.390;-3.266;2022-09-02T05:44:05;101468.50;;;17.59;65.59
23281;BME280;11809;56.390;-3.266;2022-09-02T05:46:33;101467.47;;;17.61;65.54
23281;BME280;11809;56.390;-3.266;2022-09-02T05:49:01;101467.47;;;17.61;65.41
23281;BME280;11809;56.390;-3.266;2022-09-02T05:54:00;101462.16;;;17.61;65.41
23281;BME280;11809;56.390;-3.266;2022-09-02T05:56:27;101465.69;;;17.62;65.56
23281;BME280;11809;56.390;-3.266;2022-09-02T05:58:55;101461.19;;;17.62;65.27
23281;BME280;11809;56.390;-3.266;2022-09-02T06:01:27;101459.41;;;17.63;65.47
23281;BME280;11809;56.390;-3.266;2022-09-02T06:03:54;101466.44;;;17.64;65.50
23281;BME280;11809;56.390;-3.266;2022-09-02T06:06:23;101461.13;;;17.64;65.49
23281;BME280;11809;56.390;-3.266;2022-09-02T06:08:50;101462.38;;;17.56;65.38
23281;BME280;11809;56.390;-3.266;2022-09-02T06:11:17;101458.69;;;17.59;65.42
23281;BME280;11809;56.390;-3.266;2022-09-02T06:13:45;101456.75;;;17.63;65.37
23281;BME280;11809;56.390;-3.266;2022-09-02T06:16:15;101458.34;;;17.65;65.44
23281;BME280;11809;56.390;-3.266;2022-09-02T06:18:45;101455.63;;;17.67;65.56
23281;BME280;11809;56.390;-3.266;2022-09-02T06:21:14;101452.97;;;17.67;65.32
23281;BME280;11809;56.390;-3.266;2022-09-02T06:23:41;101461.78;;;17.67;65.26
23281;BME280;11809;56.390;-3.266;2022-09-02T06:26:11;101457.28;;;17.53;65.05
23281;BME280;11809;56.390;-3.266;2022-09-02T06:28:38;101458.59;;;17.45;65.04
23281;BME280;11809;56.390;-3.266;2022-09-02T06:31:17;101460.72;;;17.38;65.10
23281;BME280;11809;56.390;-3.266;2022-09-02T06:33:45;101461.91;;;17.33;65.25
23281;BME280;11809;56.390;-3.266;2022-09-02T06:36:15;101460.72;;;17.38;65.68
23281;BME280;11809;56.390;-3.266;2022-09-02T06:38:44;101464.78;;;17.45;65.83
23281;BME280;11809;56.390;-3.266;2022-09-02T06:41:14;101462.63;;;17.52;65.94
23281;BME280;11809;56.390;-3.266;2022-09-02T06:43:42;101452.09;;;17.50;65.74
23281;BME280;11809;56.390;-3.266;2022-09-02T06:46:19;101456.44;;;17.51;65.91
23281;BME280;11809;56.390;-3.266;2022-09-02T06:48:47;101459.94;;;17.53;65.82
23281;BME280;11809;56.390;-3.266;2022-09-02T06:51:28;101458.03;;;17.55;65.72
23281;BME280;11809;56.390;-3.266;2022-09-02T06:53:56;101462.50;;;17.55;65.86
23281;BME280;11809;56.390;-3.266;2022-09-02T06:56:23;101453.66;;;17.54;65.87
23281;BME280;11809;56.390;-3.266;2022-09-02T06:58:52;101446.63;;;17.53;65.71
23281;BME280;11809;56.390;-3.266;2022-09-02T07:01:25;101449.28;;;17.53;65.84
23281;BME280;11809;56.390;-3.266;2022-09-02T07:03:53;101443.16;;;17.51;65.96
23281;BME280;11809;56.390;-3.266;2022-09-02T07:06:41;101449.44;;;17.50;65.79
23281;BME280;11809;56.390;-3.266;2022-09-02T07:09:10;101441.47;;;17.50;65.91
23281;BME280;11809;56.390;-3.266;2022-09-02T07:11:38;101452.00;;;17.52;65.69
23281;BME280;11809;56.390;-3.266;2022-09-02T07:14:06;101445.06;;;17.49;65.93
23281;BME280;11809;56.390;-3.266;2022-09-02T07:16:40;101449.44;;;17.50;65.96
23281;BME280;11809;56.390;-3.266;2022-09-02T07:19:08;101449.59;;;17.47;65.95
23281;BME280;11809;56.390;-3.266;2022-09-02T07:21:41;101442.56;;;17.46;66.02
23281;BME280;11809;56.390;-3.266;2022-09-02T07:24:11;101438.09;;;17.47;66.01
23281;BME280;11809;56.390;-3.266;2022-09-02T07:26:38;101437.25;;;17.46;65.96
23281;BME280;11809;56.390;-3.266;2022-09-02T07:29:06;101438.09;;;17.47;65.95
23281;BME280;11809;56.390;-3.266;2022-09-02T07:31:35;101434.59;;;17.46;65.93
23281;BME280;11809;56.390;-3.266;2022-09-02T07:34:03;101424.91;;;17.45;65.88
23281;BME280;11809;56.390;-3.266;2022-09-02T07:36:32;101428.41;;;17.46;65.91
23281;BME280;11809;56.390;-3.266;2022-09-02T07:39:02;101426.63;;;17.46;66.18
23281;BME280;11809;56.390;-3.266;2022-09-02T07:41:30;101428.34;;;17.47;66.27
23281;BME280;11809;56.390;-3.266;2022-09-02T07:43:57;101416.75;;;17.48;66.39
23281;BME280;11809;56.390;-3.266;2022-09-02T07:46:25;101417.72;;;17.47;66.69
23281;BME280;11809;56.390;-3.266;2022-09-02T07:48:55;101416.75;;;17.48;66.75
23281;BME280;11809;56.390;-3.266;2022-09-02T07:51:22;101417.53;;;17.50;66.72
23281;BME280;11809;56.390;-3.266;2022-09-02T07:53:56;101406.78;;;17.53;66.91
23281;BME280;11809;56.390;-3.266;2022-09-02T07:56:23;101405.75;;;17.56;66.91
23281;BME280;11809;56.390;-3.266;2022-09-02T07:58:50;101402.22;;;17.55;67.12
23281;BME280;11809;56.390;-3.266;2022-09-02T08:01:17;101401.25;;;17.56;66.98
23281;BME280;11809;56.390;-3.266;2022-09-02T08:03:50;101392.19;;;17.61;66.76
23281;BME280;11809;56.390;-3.266;2022-09-02T08:06:18;101400.91;;;17.63;66.66
23281;BME280;11809;56.390;-3.266;2022-09-02T08:08:59;101395.59;;;17.63;66.96
23281;BME280;11809;56.390;-3.266;2022-09-02T08:11:26;101394.56;;;17.65;66.74
23281;BME280;11809;56.390;-3.266;2022-09-02T08:13:54;101382.03;;;17.67;66.76
23281;BME280;11809;56.390;-3.266;2022-09-02T08:16:21;101375.78;;;17.68;66.72
23281;BME280;11809;56.390;-3.266;2022-09-02T08:18:49;101377.34;;;17.72;66.68
23281;BME280;11809;56.390;-3.266;2022-09-02T08:21:16;101370.00;;;17.76;66.53
23281;BME280;11809;56.390;-3.266;2022-09-02T08:23:44;101371.75;;;17.77;66.64
23281;BME280;11809;56.390;-3.266;2022-09-02T08:26:16;101368.63;;;17.84;66.64
23281;BME280;11809;56.390;-3.266;2022-09-02T08:28:44;101372.91;;;17.87;66.57
23281;BME280;11809;56.390;-3.266;2022-09-02T08:31:11;101374.63;;;17.88;66.45
23281;BME280;11809;56.390;-3.266;2022-09-02T08:33:38;101367.31;;;17.91;66.66
23281;BME280;11809;56.390;-3.266;2022-09-02T08:36:08;101368.16;;;17.92;66.48
23281;BME280;11809;56.390;-3.266;2022-09-02T08:38:37;101362.00;;;17.91;66.61
23281;BME280;11809;56.390;-3.266;2022-09-02T08:44:00;101349.38;;;17.95;66.18
23281;BME280;11809;56.390;-3.266;2022-09-02T08:46:30;101347.47;;;17.97;66.31
23281;BME280;11809;56.390;-3.266;2022-09-02T08:49:02;101342.84;;;18.00;66.31
23281;BME280;11809;56.390;-3.266;2022-09-02T08:51:37;101334.69;;;18.03;66.16
23281;BME280;11809;56.390;-3.266;2022-09-02T08:54:18;101340.88;;;18.04;66.35
23281;BME280;11809;56.390;-3.266;2022-09-02T08:56:47;101341.63;;;18.06;66.10
23281;BME280;11809;56.390;-3.266;2022-09-02T08:59:20;101336.13;;;18.09;66.24
23281;BME280;11809;56.390;-3.266;2022-09-02T09:02:58;101327.16;;;18.10;66.06
23281;BME280;11809;56.390;-3.266;2022-09-02T09:18:42;101305.63;;;18.29;65.81
23281;BME280;11809;56.390;-3.266;2022-09-02T09:21:14;101308.97;;;18.32;65.76
23281;BME280;11809;56.390;-3.266;2022-09-02T09:23:43;101308.03;;;18.33;65.84
23281;BME280;11809;56.390;-3.266;2022-09-02T09:26:13;101302.59;;;18.35;65.79
23281;BME280;11809;56.390;-3.266;2022-09-02T09:28:44;101304.03;;;18.40;65.94
23281;BME280;11809;56.390;-3.266;2022-09-02T09:31:19;101296.59;;;18.45;66.71
23281;BME280;11809;56.390;-3.266;2022-09-02T09:34:02;101299.88;;;18.50;66.81
23281;BME280;11809;56.390;-3.266;2022-09-02T09:42:13;101282.66;;;18.56;66.16
23281;BME280;11809;56.390;-3.266;2022-09-02T09:44:45;101280.66;;;18.59;66.10
23281;BME280;11809;56.390;-3.266;2022-09-02T09:47:21;101277.13;;;18.59;65.89
23281;BME280;11809;56.390;-3.266;2022-09-02T09:49:50;101277.13;;;18.59;66.50
23281;BME280;11809;56.390;-3.266;2022-09-02T09:52:26;101277.81;;;18.62;66.71
23281;BME280;11809;56.390;-3.266;2022-09-02T09:57:39;101258.88;;;18.67;66.63
23281;BME280;11809;56.390;-3.266;2022-09-02T10:00:30;101263.53;;;18.63;66.37
23281;BME280;11809;56.390;-3.266;2022-09-02T10:03:01;101254.97;;;18.58;66.45
23281;BME280;11809;56.390;-3.266;2022-09-02T10:05:35;101246.25;;;18.56;66.43
23281;BME280;11809;56.390;-3.266;2022-09-02T10:08:05;101249.66;;;18.58;66.58
23281;BME280;11809;56.390;-3.266;2022-09-02T10:10:59;101256.91;;;18.56;66.71
23281;BME280;11809;56.390;-3.266;2022-09-02T10:13:32;101246.25;;;18.56;66.49
23281;BME280;11809;56.390;-3.266;2022-09-02T10:16:18;101253.47;;;18.54;66.41
23281;BME280;11809;56.390;-3.266;2022-09-02T10:18:53;101249.84;;;18.55;66.37
23281;BME280;11809;56.390;-3.266;2022-09-02T10:21:54;101237.31;;;18.57;66.21
23281;BME280;11809;56.390;-3.266;2022-09-02T10:27:07;101233.50;;;18.61;66.00
23281;BME280;11809;56.390;-3.266;2022-09-02T10:35:10;101226.06;;;18.66;65.15
23281;BME280;11809;56.390;-3.266;2022-09-02T10:40:16;101217.31;;;18.64;64.92
23281;BME280;11809;56.390;-3.266;2022-09-02T10:43:04;101220.00;;;18.64;64.82
23281;BME280;11809;56.390;-3.266;2022-09-02T10:56:50;101213.06;;;18.62;64.55
23281;BME280;11809;56.390;-3.266;2022-09-02T10:59:39;101208.78;;;18.59;64.22
23281;BME280;11809;56.390;-3.266;2022-09-02T11:02:24;101214.84;;;18.61;64.53
23281;BME280;11809;56.390;-3.266;2022-09-02T11:05:15;101199.00;;;18.60;64.34
23281;BME280;11809;56.390;-3.266;2022-09-02T11:08:06;101199.06;;;18.58;63.96
23281;BME280;11809;56.390;-3.266;2022-09-02T11:11:04;101203.47;;;18.59;64.30
23281;BME280;11809;56.390;-3.266;2022-09-02T11:16:32;101183.09;;;18.58;64.10
23281;BME280;11809;56.390;-3.266;2022-09-02T11:21:51;101191.28;;;18.55;63.58
23281;BME280;11809;56.390;-3.266;2022-09-02T11:30:15;101169.16;;;18.55;63.60
23281;BME280;11809;56.390;-3.266;2022-09-02T11:32:59;101168.31;;;18.54;63.67
23281;BME280;11809;56.390;-3.266;2022-09-02T11:35:35;101169.34;;;18.52;63.74
23281;BME280;11809;56.390;-3.266;2022-09-02T11:38:21;101165.91;;;18.50;64.03
23281;BME280;11809;56.390;-3.266;2022-09-02T11:43:47;101165.09;;;18.49;64.45
23281;BME280;11809;56.390;-3.266;2022-09-02T11:52:03;101156.25;;;18.49;64.74
23281;BME280;11809;56.390;-3.266;2022-09-02T11:54:44;101154.88;;;18.56;64.38
23281;BME280;11809;56.390;-3.266;2022-09-02T11:57:20;101149.91;;;18.64;64.38
23281;BME280;11809;56.390;-3.266;2022-09-02T12:02:38;101138.66;;;18.73;64.39
23281;BME280;11809;56.390;-3.266;2022-09-02T12:08:04;101130.72;;;18.86;62.94
23281;BME280;11809;56.390;-3.266;2022-09-02T12:24:59;101113.81;;;19.24;61.02
23281;BME280;11809;56.390;-3.266;2022-09-02T12:27:29;101111.81;;;19.28;61.96
23281;BME280;11809;56.390;-3.266;2022-09-02T12:29:58;101111.69;;;19.29;62.30
23281;BME280;11809;56.390;-3.266;2022-09-02T12:33:10;101108.00;;;19.32;60.28
23281;BME280;11809;56.390;-3.266;2022-09-02T12:38:38;101107.50;;;19.40;59.85
23281;BME280;11809;56.390;-3.266;2022-09-02T12:46:36;101112.28;;;19.47;58.52
23281;BME280;11809;56.390;-3.266;2022-09-02T12:52:00;101116.31;;;19.40;58.81
23281;BME280;11809;56.390;-3.266;2022-09-02T12:57:06;101106.81;;;19.36;57.45
23281;BME280;11809;56.390;-3.266;2022-09-02T12:59:36;101097.22;;;19.33;56.75
23281;BME280;11809;56.390;-3.266;2022-09-02T13:05:20;101098.28;;;19.31;53.86
23281;BME280;11809;56.390;-3.266;2022-09-02T13:24:50;101083.59;;;19.38;57.40
23281;BME280;11809;56.390;-3.266;2022-09-02T13:30:32;101070.06;;;19.41;57.70
23281;BME280;11809;56.390;-3.266;2022-09-02T13:33:08;101054.91;;;19.42;57.80
23281;BME280;11809;56.390;-3.266;2022-09-02T13:35:38;101071.31;;;19.48;57.97
23281;BME280;11809;56.390;-3.266;2022-09-02T13:38:12;101056.31;;;19.47;58.67
23281;BME280;11809;56.390;-3.266;2022-09-02T13:40:43;101043.19;;;19.44;58.08
23281;BME280;11809;56.390;-3.266;2022-09-02T13:45:39;101053.97;;;19.43;59.53
23281;BME280;11809;56.390;-3.266;2022-09-02T13:48:09;101048.00;;;19.39;59.80
23281;BME280;11809;56.390;-3.266;2022-09-02T13:50:41;101045.13;;;19.42;59.47
23281;BME280;11809;56.390;-3.266;2022-09-02T13:53:13;101044.91;;;19.45;59.28
23281;BME280;11809;56.390;-3.266;2022-09-02T13:56:07;101041.16;;;19.48;58.73
23281;BME280;11809;56.390;-3.266;2022-09-02T13:58:42;101042.97;;;19.47;59.45
23281;BME280;11809;56.390;-3.266;2022-09-02T14:01:21;101032.53;;;19.44;59.93
23281;BME280;11809;56.390;-3.266;2022-09-02T14:03:54;101021.75;;;19.46;60.03
23281;BME280;11809;56.390;-3.266;2022-09-02T14:06:25;101027.19;;;19.44;60.15
23281;BME280;11809;56.390;-3.266;2022-09-02T14:09:02;101032.53;;;19.44;60.59
23281;BME280;11809;56.390;-3.266;2022-09-02T14:11:39;101022.00;;;19.43;60.55
23281;BME280;11809;56.390;-3.266;2022-09-02T14:14:15;101029.13;;;19.42;60.94
23281;BME280;11809;56.390;-3.266;2022-09-02T14:16:43;101028.28;;;19.42;61.04
23281;BME280;11809;56.390;-3.266;2022-09-02T14:19:21;101036.16;;;19.43;59.20
23281;BME280;11809;56.390;-3.266;2022-09-02T14:21:56;101018.88;;;19.49;56.30
23281;BME280;11809;56.390;-3.266;2022-09-02T14:24:26;101024.19;;;19.49;57.25
23281;BME280;11809;56.390;-3.266;2022-09-02T14:26:58;101029.13;;;19.42;54.61
23281;BME280;11809;56.390;-3.266;2022-09-02T14:29:27;101024.19;;;19.36;53.59
23281;BME280;11809;56.390;-3.266;2022-09-02T14:34:36;101019.28;;;19.30;53.35
23281;BME280;11809;56.390;-3.266;2022-09-02T14:37:25;101015.13;;;19.26;54.04
23281;BME280;11809;56.390;-3.266;2022-09-02T14:42:27;101005.88;;;19.31;55.70
23281;BME280;11809;56.390;-3.266;2022-09-02T14:44:55;101002.88;;;19.36;56.14
23281;BME280;11809;56.390;-3.266;2022-09-02T14:47:25;101003.06;;;19.33;54.88
23281;BME280;11809;56.390;-3.266;2022-09-02T14:49:54;101004.78;;;19.34;55.05
23281;BME280;11809;56.390;-3.266;2022-09-02T14:52:22;100995.00;;;19.34;55.88
23281;BME280;11809;56.390;-3.266;2022-09-02T14:54:53;100986.88;;;19.36;54.95
23281;BME280;11809;56.390;-3.266;2022-09-02T14:57:31;100989.75;;;19.33;53.88
23281;BME280;11809;56.390;-3.266;2022-09-02T15:02:34;100976.13;;;19.38;57.17
23281;BME280;11809;56.390;-3.266;2022-09-02T15:05:04;100974.31;;;19.38;57.38
23281;BME280;11809;56.390;-3.266;2022-09-02T15:07:33;100965.25;;;19.41;58.16
23281;BME280;11809;56.390;-3.266;2022-09-02T15:10:00;100961.72;;;19.40;58.41
23281;BME280;11809;56.390;-3.266;2022-09-02T15:12:32;100962.78;;;19.38;58.48
23281;BME280;11809;56.390;-3.266;2022-09-02T15:15:01;100968.22;;;19.36;58.52
23281;BME280;11809;56.390;-3.266;2022-09-02T15:17:28;100968.13;;;19.38;58.72
23281;BME280;11809;56.390;-3.266;2022-09-02T15:19:56;100969.16;;;19.35;58.94